Report METAR

 

KSJC - San Jose, California, USA
Distance from station: NE 14km
Dati ricevuti: 05/03/2024 06:53
Sereno
Sereno
 Vento da SSE
Vento: SSE 9 km/h
Temperatura: 12°C
P.to Rugiada: 6°C
Umidità: 67%
Barometro: 1019.6 hPa
Nuvole: Sereno
Visibility: 16 km
2024/03/05 05:53 KSJC 050553Z 16005KT 10SM CLR 12/06 A3011 RMK AO2 SLP194 T01170061 10156 20111 58000
KNUQ - Moffett Nas/Mtn, California, USA
Distance from station: N 14km
Dati ricevuti: 05/03/2024 07:15
Sereno
Sereno
 Vento da calmo
Vento: Calma
Temperatura: 10°C
P.to Rugiada: 7°C
Umidità: 82%
Barometro: 1019.3 hPa
Nuvole: Sereno
Visibility: 16 km
2024/03/05 06:15 KNUQ 050615Z AUTO 00000KT 10SM CLR 10/07 A3010 RMK AO2
KPAO - Palo Alto, California, USA
Distance from station: NNO 23km
Dati ricevuti: 05/03/2024 05:47
DATI Obsoleti
Parz. nuvoloso
Parz. nuvoloso
 Vento da S
Vento: S 7 km/h
Temperatura: 11°C
P.to Rugiada: 7°C
Umidità: 77%
Barometro: 1019.6 hPa
Nuvole: Parz. nuvoloso
Visibility: 16 km
Cloud details: Parz. nuvoloso 1829 m
2024/03/05 04:47 KPAO 050447Z 19004KT 10SM SCT060 11/07 A3011 RMK LAST
 
KRHV - San Jose/Reid, California, USA
Distance from station: ENE 19km
Dati ricevuti: 05/03/2024 06:55
Parz. nuvoloso
Parz. nuvoloso
 Vento da calmo
Vento: Calma
Temperatura: 10°C
P.to Rugiada: 6°C
Umidità: 76%
Barometro: 1020 hPa
Nuvole: Parz. nuvoloso
Visibility: 16 km
Cloud details: Parz. nuvoloso 1676 m
2024/03/05 05:55 KRHV 050555Z 00000KT 10SM SCT055 10/06 A3012 RMK LAST
KOAK - Oakland, California, USA
Distance from station: NNO 50km
Dati ricevuti: 05/03/2024 06:53
Molto nuvoloso
Molto nuvoloso
 Vento da S
Vento: S 11 km/h
Temperatura: 12°C
P.to Rugiada: 7°C
Umidità: 72%
Barometro: 1019.6 hPa
Nuvole: Molto nuvoloso
Visibility: 16 km
Cloud details: Molto nuvoloso 1829 m
Molto nuvoloso 4267 m
2024/03/05 05:53 KOAK 050553Z 18006KT 10SM BKN060 BKN140 12/07 A3011 RMK AO2 SLP194 T01220067 10139 20117 58000
KSQL - San Carlos Airpo, California, USA
Distance from station: NO 34km
Dati ricevuti: 05/03/2024 07:15
Coperto
Coperto
 Vento da SSO
Vento: SSO 7 km/h
Temperatura: 12°C
P.to Rugiada: 6°C
Umidità: 67%
Barometro: 1019.6 hPa
Nuvole: Coperto
Visibility: 16 km
Cloud details: Coperto 1402 m
2024/03/05 06:15 KSQL 050615Z AUTO 20004KT 10SM OVC046 12/06 A3011 RMK AO2
 
KSFO - San Francisco, California, USA
Distance from station: NO 49km
Dati ricevuti: 05/03/2024 06:56
Molto nuvoloso
Molto nuvoloso
 Vento da S
Vento: S 13 km/h
Temperatura: 12°C
P.to Rugiada: 6°C
Umidità: 67%
Barometro: 1019.3 hPa
Nuvole: Molto nuvoloso
Visibility: 16 km
Cloud details: Few Clouds 914 m
Molto nuvoloso 1981 m
2024/03/05 05:56 KSFO 050556Z 17007KT 10SM FEW030 BKN065 12/06 A3010 RMK AO2 SLP191 T01170056 10139 20117 58003 $
KE16 - San Martin, California, USA
Distance from station: ESE 43km
Dati ricevuti: 05/03/2024 07:15
Sereno
Sereno
 Vento da calmo
Vento: Calma
Temperatura: 8°C
P.to Rugiada: 7°C
Umidità: 93%
Barometro: 1020.7 hPa
Nuvole: Sereno
Visibility: 16 km
2024/03/05 06:15 KE16 050615Z AUTO 00000KT 10SM CLR 08/07 A3014 RMK AO2 PWINO PNO
KWVI - Watsonville, California, USA
Distance from station: SSE 44km
Dati ricevuti: 05/03/2024 06:53
Sereno
Sereno
 Vento da N
Vento: N 6 km/h
Temperatura: 7°C
P.to Rugiada: 7°C
Umidità: 100%
Barometro: 1020.3 hPa
Nuvole: Sereno
Visibility: 16 km
2024/03/05 05:53 KWVI 050553Z AUTO 35003KT 10SM CLR 07/07 A3013 RMK AO2 SLP202 T00720067 10139 20072 56003
 
KHAF - Half Moon Bay, California, USA
Distance from station: ONO 50km
Dati ricevuti: 05/03/2024 07:15
Coperto
Coperto
 Vento da SE
Vento: SE 11 km/h
Temperatura: 11°C
P.to Rugiada: 8°C
Umidità: 82%
Barometro: 1019.6 hPa
Nuvole: Coperto
Visibility: 14 km
Cloud details: Parz. nuvoloso 1158 m
Coperto 1829 m
2024/03/05 06:15 KHAF 050615Z AUTO 14006KT 9SM SCT038 OVC060 11/08 A3011 RMK AO2
KHWD - Hayward, California, USA
Distance from station: N 44km
Dati ricevuti: 05/03/2024 06:54
Coperto
Coperto
 Vento da NE
Vento: NE 6 km/h
Temperatura: 12°C
P.to Rugiada: 7°C
Umidità: 72%
Barometro: 1019.3 hPa
Nuvole: Coperto
Visibility: 16 km
Cloud details: Coperto 1829 m
2024/03/05 05:54 KHWD 050554Z AUTO 05003KT 10SM OVC060 12/07 A3010 RMK AO2 SLP202 T01170067 10150 20117 58002
KLVK - Livermore, California, USA
Distance from station: NNE 51km
Dati ricevuti: 05/03/2024 06:53
Sereno
Sereno
 Vento da E
Vento: E 6 km/h
Temperatura: 8°C
P.to Rugiada: 6°C
Umidità: 87%
Barometro: 1019.3 hPa
Nuvole: Sereno
Visibility: 16 km
2024/03/05 05:53 KLVK 050553Z AUTO 09003KT 10SM CLR 08/06 A3010 RMK AO2 SLP190 T00830056 10144 20078 58001